sensor_id;sensor_type;location;lat;lon;timestamp;pressure;altitude;pressure_sealevel;temperature;humidity
47274;BME280;33007;49.082;19.306;2022-10-14T00:01:19;96538.75;;;7.11;100.00
47274;BME280;33007;49.082;19.306;2022-10-14T00:03:45;96520.38;;;7.06;100.00
47274;BME280;33007;49.082;19.306;2022-10-14T00:06:14;96539.59;;;6.95;100.00
47274;BME280;33007;49.082;19.306;2022-10-14T00:08:41;96524.38;;;6.89;100.00
47274;BME280;33007;49.082;19.306;2022-10-14T00:11:10;96528.44;;;6.80;100.00
47274;BME280;33007;49.082;19.306;2022-10-14T00:13:36;96491.91;;;6.63;100.00
47274;BME280;33007;49.082;19.306;2022-10-14T00:16:04;96497.22;;;6.79;100.00
47274;BME280;33007;49.082;19.306;2022-10-14T00:18:30;96506.66;;;6.88;100.00
47274;BME280;33007;49.082;19.306;2022-10-14T00:20:59;96509.97;;;6.92;100.00
47274;BME280;33007;49.082;19.306;2022-10-14T00:23:25;96525.03;;;7.05;100.00
47274;BME280;33007;49.082;19.306;2022-10-14T00:25:51;96506.91;;;6.64;100.00
47274;BME280;33007;49.082;19.306;2022-10-14T00:28:17;96506.59;;;6.75;100.00
47274;BME280;33007;49.082;19.306;2022-10-14T00:30:53;96491.38;;;6.81;100.00
47274;BME280;33007;49.082;19.306;2022-10-14T00:33:19;96520.56;;;6.86;100.00
47274;BME280;33007;49.082;19.306;2022-10-14T00:35:52;96519.34;;;6.74;100.00
47274;BME280;33007;49.082;19.306;2022-10-14T00:38:18;96491.59;;;6.61;100.00
47274;BME280;33007;49.082;19.306;2022-10-14T00:40:45;96502.84;;;6.72;100.00
47274;BME280;33007;49.082;19.306;2022-10-14T00:43:12;96502.84;;;6.85;100.00
47274;BME280;33007;49.082;19.306;2022-10-14T00:45:39;96498.28;;;6.69;100.00
47274;BME280;33007;49.082;19.306;2022-10-14T00:48:05;96499.91;;;6.67;100.00
47274;BME280;33007;49.082;19.306;2022-10-14T00:50:32;96496.69;;;6.72;100.00
47274;BME280;33007;49.082;19.306;2022-10-14T00:52:59;96510.28;;;6.81;100.00
47274;BME280;33007;49.082;19.306;2022-10-14T00:55:25;96508.47;;;6.78;100.00
47274;BME280;33007;49.082;19.306;2022-10-14T00:57:52;96504.47;;;6.82;100.00
47274;BME280;33007;49.082;19.306;2022-10-14T01:00:19;96515.22;;;7.12;100.00
47274;BME280;33007;49.082;19.306;2022-10-14T01:02:46;96515.44;;;7.17;100.00
47274;BME280;33007;49.082;19.306;2022-10-14T01:05:18;96491.22;;;7.01;100.00
47274;BME280;33007;49.082;19.306;2022-10-14T01:15:32;96507.09;;;7.24;100.00
47274;BME280;33007;49.082;19.306;2022-10-14T01:21:06;96509.81;;;7.24;100.00
47274;BME280;33007;49.082;19.306;2022-10-14T01:28:53;96493.59;;;7.24;100.00
47274;BME280;33007;49.082;19.306;2022-10-14T01:31:30;96484.97;;;7.42;100.00
47274;BME280;33007;49.082;19.306;2022-10-14T01:33:59;96484.00;;;7.36;100.00
47274;BME280;33007;49.082;19.306;2022-10-14T01:36:32;96491.22;;;7.39;100.00
47274;BME280;33007;49.082;19.306;2022-10-14T01:39:08;96488.66;;;7.35;100.00
47274;BME280;33007;49.082;19.306;2022-10-14T01:41:42;96472.00;;;7.37;100.00
47274;BME280;33007;49.082;19.306;2022-10-14T01:44:11;96476.09;;;7.54;100.00
47274;BME280;33007;49.082;19.306;2022-10-14T01:46:39;96480.09;;;7.63;100.00
47274;BME280;33007;49.082;19.306;2022-10-14T01:49:10;96498.66;;;7.86;100.00
47274;BME280;33007;49.082;19.306;2022-10-14T01:51:44;96484.19;;;7.67;100.00
47274;BME280;33007;49.082;19.306;2022-10-14T01:54:14;96485.50;;;7.63;100.00
47274;BME280;33007;49.082;19.306;2022-10-14T01:56:44;96483.13;;;7.52;100.00
47274;BME280;33007;49.082;19.306;2022-10-14T01:59:13;96502.69;;;7.56;100.00
47274;BME280;33007;49.082;19.306;2022-10-14T02:01:40;96483.13;;;7.39;100.00
47274;BME280;33007;49.082;19.306;2022-10-14T02:04:20;96486.78;;;7.45;100.00
47274;BME280;33007;49.082;19.306;2022-10-14T02:07:05;96473.81;;;7.40;100.00
47274;BME280;33007;49.082;19.306;2022-10-14T02:17:54;96477.38;;;7.50;100.00
47274;BME280;33007;49.082;19.306;2022-10-14T02:20:32;96468.09;;;7.38;100.00
47274;BME280;33007;49.082;19.306;2022-10-14T02:23:04;96491.44;;;7.57;100.00
47274;BME280;33007;49.082;19.306;2022-10-14T02:25:33;96457.59;;;7.53;100.00
47274;BME280;33007;49.082;19.306;2022-10-14T02:28:02;96482.47;;;7.60;100.00
47274;BME280;33007;49.082;19.306;2022-10-14T02:30:33;96462.38;;;7.49;100.00
47274;BME280;33007;49.082;19.306;2022-10-14T02:33:00;96454.03;;;7.56;100.00
47274;BME280;33007;49.082;19.306;2022-10-14T02:35:27;96476.41;;;7.69;100.00
47274;BME280;33007;49.082;19.306;2022-10-14T02:37:56;96449.81;;;7.55;100.00
47274;BME280;33007;49.082;19.306;2022-10-14T02:40:43;96473.25;;;7.71;100.00
47274;BME280;33007;49.082;19.306;2022-10-14T02:43:10;96444.19;;;7.49;100.00
47274;BME280;33007;49.082;19.306;2022-10-14T02:45:38;96440.50;;;7.56;100.00
47274;BME280;33007;49.082;19.306;2022-10-14T02:48:05;96442.78;;;7.57;100.00
47274;BME280;33007;49.082;19.306;2022-10-14T02:50:31;96440.72;;;7.61;100.00
47274;BME280;33007;49.082;19.306;2022-10-14T02:52:57;96441.59;;;7.58;100.00
47274;BME280;33007;49.082;19.306;2022-10-14T02:55:23;96443.75;;;7.64;100.00
47274;BME280;33007;49.082;19.306;2022-10-14T02:57:48;96443.50;;;7.71;100.00
47274;BME280;33007;49.082;19.306;2022-10-14T03:00:14;96425.19;;;7.53;100.00
47274;BME280;33007;49.082;19.306;2022-10-14T03:02:40;96452.56;;;7.77;100.00
47274;BME280;33007;49.082;19.306;2022-10-14T03:05:06;96442.31;;;7.72;100.00
47274;BME280;33007;49.082;19.306;2022-10-14T03:07:32;96463.84;;;7.75;100.00
47274;BME280;33007;49.082;19.306;2022-10-14T03:09:58;96440.06;;;7.70;100.00
47274;BME280;33007;49.082;19.306;2022-10-14T03:12:25;96463.28;;;7.80;100.00
47274;BME280;33007;49.082;19.306;2022-10-14T03:14:51;96446.25;;;7.58;100.00
47274;BME280;33007;49.082;19.306;2022-10-14T03:17:17;96444.06;;;7.66;100.00
47274;BME280;33007;49.082;19.306;2022-10-14T03:19:43;96445.16;;;7.68;100.00
47274;BME280;33007;49.082;19.306;2022-10-14T03:22:09;96439.97;;;7.61;100.00
47274;BME280;33007;49.082;19.306;2022-10-14T03:24:35;96428.63;;;7.53;100.00
47274;BME280;33007;49.082;19.306;2022-10-14T03:27:00;96457.78;;;7.71;100.00
47274;BME280;33007;49.082;19.306;2022-10-14T03:29:26;96451.41;;;7.65;100.00
47274;BME280;33007;49.082;19.306;2022-10-14T03:31:52;96443.66;;;7.67;100.00
47274;BME280;33007;49.082;19.306;2022-10-14T03:34:18;96436.50;;;7.60;100.00
47274;BME280;33007;49.082;19.306;2022-10-14T03:36:44;96438.34;;;7.64;100.00
47274;BME280;33007;49.082;19.306;2022-10-14T03:39:10;96442.88;;;7.67;100.00
47274;BME280;33007;49.082;19.306;2022-10-14T03:41:36;96430.69;;;7.62;100.00
47274;BME280;33007;49.082;19.306;2022-10-14T03:44:02;96446.00;;;7.65;100.00
47274;BME280;33007;49.082;19.306;2022-10-14T03:46:27;96437.69;;;7.59;100.00
47274;BME280;33007;49.082;19.306;2022-10-14T03:48:53;96446.47;;;7.64;100.00
47274;BME280;33007;49.082;19.306;2022-10-14T03:51:19;96440.59;;;7.65;100.00
47274;BME280;33007;49.082;19.306;2022-10-14T03:53:45;96413.38;;;7.59;100.00
47274;BME280;33007;49.082;19.306;2022-10-14T03:56:11;96437.47;;;7.67;100.00
47274;BME280;33007;49.082;19.306;2022-10-14T03:58:37;96436.72;;;7.66;100.00
47274;BME280;33007;49.082;19.306;2022-10-14T04:01:02;96399.97;;;7.56;100.00
47274;BME280;33007;49.082;19.306;2022-10-14T04:03:28;96422.31;;;7.69;100.00
47274;BME280;33007;49.082;19.306;2022-10-14T04:05:54;96434.53;;;7.74;100.00
47274;BME280;33007;49.082;19.306;2022-10-14T04:08:20;96404.50;;;7.59;100.00
47274;BME280;33007;49.082;19.306;2022-10-14T04:10:53;96432.34;;;7.81;100.00
47274;BME280;33007;49.082;19.306;2022-10-14T04:13:18;96418.97;;;7.78;100.00
47274;BME280;33007;49.082;19.306;2022-10-14T04:15:44;96437.41;;;7.92;100.00
47274;BME280;33007;49.082;19.306;2022-10-14T04:18:10;96431.69;;;7.90;100.00
47274;BME280;33007;49.082;19.306;2022-10-14T04:20:36;96423.22;;;7.88;100.00
47274;BME280;33007;49.082;19.306;2022-10-14T04:23:02;96436.72;;;8.01;100.00
47274;BME280;33007;49.082;19.306;2022-10-14T04:25:28;96427.88;;;7.87;100.00
47274;BME280;33007;49.082;19.306;2022-10-14T04:27:54;96425.31;;;7.84;100.00
47274;BME280;33007;49.082;19.306;2022-10-14T04:30:20;96423.38;;;7.84;100.00
47274;BME280;33007;49.082;19.306;2022-10-14T04:32:46;96407.31;;;7.68;100.00
47274;BME280;33007;49.082;19.306;2022-10-14T04:35:11;96428.44;;;7.82;100.00
47274;BME280;33007;49.082;19.306;2022-10-14T04:37:37;96423.47;;;7.81;100.00
47274;BME280;33007;49.082;19.306;2022-10-14T04:40:04;96424.56;;;7.83;100.00
47274;BME280;33007;49.082;19.306;2022-10-14T04:42:30;96413.19;;;7.88;100.00
47274;BME280;33007;49.082;19.306;2022-10-14T04:44:55;96423.13;;;7.92;100.00
47274;BME280;33007;49.082;19.306;2022-10-14T04:47:21;96422.25;;;7.95;100.00
47274;BME280;33007;49.082;19.306;2022-10-14T04:49:47;96416.75;;;7.85;100.00
47274;BME280;33007;49.082;19.306;2022-10-14T04:52:13;96411.16;;;7.80;100.00
47274;BME280;33007;49.082;19.306;2022-10-14T04:54:39;96399.06;;;7.72;100.00
47274;BME280;33007;49.082;19.306;2022-10-14T04:57:05;96441.69;;;8.02;100.00
47274;BME280;33007;49.082;19.306;2022-10-14T04:59:32;96415.13;;;7.88;100.00
47274;BME280;33007;49.082;19.306;2022-10-14T05:01:59;96414.69;;;7.90;100.00
47274;BME280;33007;49.082;19.306;2022-10-14T05:04:24;96378.75;;;7.67;100.00
47274;BME280;33007;49.082;19.306;2022-10-14T05:06:50;96414.56;;;7.93;100.00
47274;BME280;33007;49.082;19.306;2022-10-14T05:09:16;96400.84;;;7.87;100.00
47274;BME280;33007;49.082;19.306;2022-10-14T05:11:42;96430.50;;;8.13;100.00
47274;BME280;33007;49.082;19.306;2022-10-14T05:14:08;96424.47;;;8.09;100.00
47274;BME280;33007;49.082;19.306;2022-10-14T05:16:34;96419.59;;;8.04;100.00
47274;BME280;33007;49.082;19.306;2022-10-14T05:19:00;96403.81;;;8.02;100.00
47274;BME280;33007;49.082;19.306;2022-10-14T05:21:26;96428.00;;;8.19;100.00
47274;BME280;33007;49.082;19.306;2022-10-14T05:23:52;96406.34;;;8.19;100.00
47274;BME280;33007;49.082;19.306;2022-10-14T05:26:17;96405.59;;;8.18;100.00
47274;BME280;33007;49.082;19.306;2022-10-14T05:28:43;96398.38;;;8.15;100.00
47274;BME280;33007;49.082;19.306;2022-10-14T05:31:09;96427.41;;;8.36;100.00
47274;BME280;33007;49.082;19.306;2022-10-14T05:33:35;96401.38;;;8.17;100.00
47274;BME280;33007;49.082;19.306;2022-10-14T05:36:01;96402.59;;;8.16;100.00
47274;BME280;33007;49.082;19.306;2022-10-14T05:38:29;96439.50;;;8.45;100.00
47274;BME280;33007;49.082;19.306;2022-10-14T05:40:56;96407.16;;;8.28;100.00
47274;BME280;33007;49.082;19.306;2022-10-14T05:43:22;96416.34;;;8.31;100.00
47274;BME280;33007;49.082;19.306;2022-10-14T05:45:49;96413.63;;;8.31;100.00
47274;BME280;33007;49.082;19.306;2022-10-14T05:48:16;96403.53;;;8.22;100.00
47274;BME280;33007;49.082;19.306;2022-10-14T05:50:42;96409.81;;;8.19;100.00
47274;BME280;33007;49.082;19.306;2022-10-14T05:53:08;96392.44;;;8.07;100.00
47274;BME280;33007;49.082;19.306;2022-10-14T05:55:34;96412.28;;;8.26;100.00
47274;BME280;33007;49.082;19.306;2022-10-14T05:58:00;96413.34;;;8.29;100.00
47274;BME280;33007;49.082;19.306;2022-10-14T06:00:26;96394.31;;;8.20;100.00
47274;BME280;33007;49.082;19.306;2022-10-14T06:02:52;96420.34;;;8.39;100.00
47274;BME280;33007;49.082;19.306;2022-10-14T06:05:18;96427.03;;;8.47;100.00
47274;BME280;33007;49.082;19.306;2022-10-14T06:07:44;96439.66;;;8.50;100.00
47274;BME280;33007;49.082;19.306;2022-10-14T06:10:10;96428.03;;;8.40;100.00
47274;BME280;33007;49.082;19.306;2022-10-14T06:12:36;96416.34;;;8.31;100.00
47274;BME280;33007;49.082;19.306;2022-10-14T06:15:02;96441.06;;;8.55;100.00
47274;BME280;33007;49.082;19.306;2022-10-14T06:17:27;96410.63;;;8.42;100.00
47274;BME280;33007;49.082;19.306;2022-10-14T06:19:53;96438.72;;;8.66;100.00
47274;BME280;33007;49.082;19.306;2022-10-14T06:22:19;96428.00;;;8.62;100.00
47274;BME280;33007;49.082;19.306;2022-10-14T06:24:45;96435.75;;;8.73;100.00
47274;BME280;33007;49.082;19.306;2022-10-14T06:27:10;96420.97;;;8.65;100.00
47274;BME280;33007;49.082;19.306;2022-10-14T06:29:36;96417.34;;;8.68;100.00
47274;BME280;33007;49.082;19.306;2022-10-14T06:32:04;96406.97;;;8.66;100.00
47274;BME280;33007;49.082;19.306;2022-10-14T06:34:30;96413.94;;;8.77;100.00
47274;BME280;33007;49.082;19.306;2022-10-14T06:36:56;96413.66;;;8.75;100.00
47274;BME280;33007;49.082;19.306;2022-10-14T06:39:21;96426.63;;;8.80;100.00
47274;BME280;33007;49.082;19.306;2022-10-14T06:41:47;96434.66;;;8.92;100.00
47274;BME280;33007;49.082;19.306;2022-10-14T06:44:13;96423.00;;;8.83;100.00
47274;BME280;33007;49.082;19.306;2022-10-14T06:46:40;96413.88;;;8.89;100.00
47274;BME280;33007;49.082;19.306;2022-10-14T06:49:06;96426.81;;;8.95;100.00
47274;BME280;33007;49.082;19.306;2022-10-14T06:51:32;96435.44;;;9.02;100.00
47274;BME280;33007;49.082;19.306;2022-10-14T06:53:57;96426.88;;;9.04;100.00
47274;BME280;33007;49.082;19.306;2022-10-14T06:56:23;96417.75;;;8.88;100.00
47274;BME280;33007;49.082;19.306;2022-10-14T06:58:53;96422.19;;;8.95;100.00
47274;BME280;33007;49.082;19.306;2022-10-14T07:01:20;96428.38;;;9.05;100.00
47274;BME280;33007;49.082;19.306;2022-10-14T07:03:46;96418.91;;;9.09;100.00
47274;BME280;33007;49.082;19.306;2022-10-14T07:06:12;96402.97;;;9.11;100.00
47274;BME280;33007;49.082;19.306;2022-10-14T07:08:38;96421.69;;;9.28;100.00
47274;BME280;33007;49.082;19.306;2022-10-14T07:11:04;96440.09;;;9.42;100.00
47274;BME280;33007;49.082;19.306;2022-10-14T07:13:30;96391.56;;;9.16;100.00
47274;BME280;33007;49.082;19.306;2022-10-14T07:15:56;96430.25;;;9.26;100.00
47274;BME280;33007;49.082;19.306;2022-10-14T07:18:22;96433.63;;;9.39;100.00
47274;BME280;33007;49.082;19.306;2022-10-14T07:20:48;96422.03;;;9.39;100.00
47274;BME280;33007;49.082;19.306;2022-10-14T07:23:14;96449.34;;;9.54;100.00
47274;BME280;33007;49.082;19.306;2022-10-14T07:25:40;96423.06;;;9.41;100.00
47274;BME280;33007;49.082;19.306;2022-10-14T07:28:06;96417.81;;;9.38;100.00
47274;BME280;33007;49.082;19.306;2022-10-14T07:30:31;96419.06;;;9.55;100.00
47274;BME280;33007;49.082;19.306;2022-10-14T07:33:00;96439.88;;;9.77;100.00
47274;BME280;33007;49.082;19.306;2022-10-14T07:35:27;96422.09;;;9.66;100.00
47274;BME280;33007;49.082;19.306;2022-10-14T07:37:53;96428.72;;;9.84;100.00
47274;BME280;33007;49.082;19.306;2022-10-14T07:40:20;96435.06;;;9.90;100.00
47274;BME280;33007;49.082;19.306;2022-10-14T07:42:46;96423.78;;;9.82;100.00
47274;BME280;33007;49.082;19.306;2022-10-14T07:45:12;96429.81;;;9.86;100.00
47274;BME280;33007;49.082;19.306;2022-10-14T07:47:47;96447.91;;;10.08;100.00
47274;BME280;33007;49.082;19.306;2022-10-14T07:50:13;96415.94;;;9.93;100.00
47274;BME280;33007;49.082;19.306;2022-10-14T07:52:39;96414.44;;;10.02;100.00
47274;BME280;33007;49.082;19.306;2022-10-14T07:55:05;96428.91;;;10.08;100.00
47274;BME280;33007;49.082;19.306;2022-10-14T07:57:32;96432.53;;;10.14;99.84
47274;BME280;33007;49.082;19.306;2022-10-14T07:59:58;96427.38;;;10.16;100.00
47274;BME280;33007;49.082;19.306;2022-10-14T08:02:23;96412.78;;;10.13;99.40
47274;BME280;33007;49.082;19.306;2022-10-14T08:04:53;96437.53;;;10.34;100.00
47274;BME280;33007;49.082;19.306;2022-10-14T08:07:20;96408.25;;;10.19;99.57
47274;BME280;33007;49.082;19.306;2022-10-14T08:09:46;96428.47;;;10.46;99.69
47274;BME280;33007;49.082;19.306;2022-10-14T08:12:12;96418.81;;;10.36;99.45
47274;BME280;33007;49.082;19.306;2022-10-14T08:14:38;96409.94;;;10.35;98.29
47274;BME280;33007;49.082;19.306;2022-10-14T08:17:04;96409.31;;;10.31;97.60
47274;BME280;33007;49.082;19.306;2022-10-14T08:19:29;96416.09;;;10.45;99.25
47274;BME280;33007;49.082;19.306;2022-10-14T08:21:55;96406.59;;;10.40;99.16
47274;BME280;33007;49.082;19.306;2022-10-14T08:24:21;96425.75;;;10.55;97.75
47274;BME280;33007;49.082;19.306;2022-10-14T08:26:51;96394.53;;;10.23;96.81
47274;BME280;33007;49.082;19.306;2022-10-14T08:29:19;96414.00;;;10.40;97.75
47274;BME280;33007;49.082;19.306;2022-10-14T08:31:47;96414.44;;;10.47;97.49
47274;BME280;33007;49.082;19.306;2022-10-14T08:34:13;96423.31;;;10.57;98.68
47274;BME280;33007;49.082;19.306;2022-10-14T08:36:39;96410.34;;;10.61;98.37
47274;BME280;33007;49.082;19.306;2022-10-14T08:39:06;96428.25;;;10.77;99.12
47274;BME280;33007;49.082;19.306;2022-10-14T08:44:27;96436.97;;;10.81;97.52
47274;BME280;33007;49.082;19.306;2022-10-14T08:47:01;96411.25;;;10.58;95.99
47274;BME280;33007;49.082;19.306;2022-10-14T08:58:02;96430.06;;;10.80;97.78
47274;BME280;33007;49.082;19.306;2022-10-14T09:00:31;96416.03;;;10.72;98.07
47274;BME280;33007;49.082;19.306;2022-10-14T09:02:58;96407.44;;;10.65;98.65
47274;BME280;33007;49.082;19.306;2022-10-14T09:05:27;96430.38;;;10.73;98.19
47274;BME280;33007;49.082;19.306;2022-10-14T09:07:55;96410.78;;;10.60;98.44
47274;BME280;33007;49.082;19.306;2022-10-14T09:10:30;96427.94;;;10.75;98.29
47274;BME280;33007;49.082;19.306;2022-10-14T09:12:59;96413.94;;;10.58;97.30
47274;BME280;33007;49.082;19.306;2022-10-14T09:15:38;96429.91;;;10.74;97.19
47274;BME280;33007;49.082;19.306;2022-10-14T09:18:20;96394.06;;;10.52;97.66
47274;BME280;33007;49.082;19.306;2022-10-14T09:20:48;96408.66;;;10.64;98.90
47274;BME280;33007;49.082;19.306;2022-10-14T09:23:19;96409.25;;;10.68;99.26
47274;BME280;33007;49.082;19.306;2022-10-14T09:25:58;96432.31;;;10.82;100.00
47274;BME280;33007;49.082;19.306;2022-10-14T09:28:32;96419.66;;;10.79;98.80
47274;BME280;33007;49.082;19.306;2022-10-14T09:31:01;96413.31;;;10.72;100.00
47274;BME280;33007;49.082;19.306;2022-10-14T09:33:27;96429.56;;;10.91;100.00
47274;BME280;33007;49.082;19.306;2022-10-14T09:35:54;96413.47;;;10.78;100.00
47274;BME280;33007;49.082;19.306;2022-10-14T09:38:20;96400.78;;;10.75;100.00
47274;BME280;33007;49.082;19.306;2022-10-14T09:40:47;96411.91;;;10.86;100.00
47274;BME280;33007;49.082;19.306;2022-10-14T09:43:16;96430.00;;;10.98;98.26
47274;BME280;33007;49.082;19.306;2022-10-14T09:45:54;96433.88;;;11.07;99.28
47274;BME280;33007;49.082;19.306;2022-10-14T09:48:49;96426.34;;;11.01;97.44
47274;BME280;33007;49.082;19.306;2022-10-14T09:51:21;96406.31;;;10.90;99.40
47274;BME280;33007;49.082;19.306;2022-10-14T09:53:50;96418.81;;;10.96;99.91
47274;BME280;33007;49.082;19.306;2022-10-14T09:56:33;96425.00;;;11.06;100.00
47274;BME280;33007;49.082;19.306;2022-10-14T09:59:02;96400.13;;;10.89;97.47
47274;BME280;33007;49.082;19.306;2022-10-14T10:01:36;96426.66;;;11.04;98.49
47274;BME280;33007;49.082;19.306;2022-10-14T10:07:00;96421.50;;;11.15;99.34
47274;BME280;33007;49.082;19.306;2022-10-14T10:09:26;96423.28;;;11.18;97.75
47274;BME280;33007;49.082;19.306;2022-10-14T10:11:52;96397.66;;;11.10;98.09
47274;BME280;33007;49.082;19.306;2022-10-14T10:14:31;96406.06;;;11.21;98.15
47274;BME280;33007;49.082;19.306;2022-10-14T10:19:34;96407.41;;;11.25;98.45
47274;BME280;33007;49.082;19.306;2022-10-14T10:24:44;96391.25;;;11.22;96.66
47274;BME280;33007;49.082;19.306;2022-10-14T10:27:25;96414.88;;;11.40;97.09
47274;BME280;33007;49.082;19.306;2022-10-14T10:29:52;96408.03;;;11.44;96.85
47274;BME280;33007;49.082;19.306;2022-10-14T10:32:41;96406.91;;;11.36;96.29
47274;BME280;33007;49.082;19.306;2022-10-14T10:37:57;96405.75;;;11.52;95.75
47274;BME280;33007;49.082;19.306;2022-10-14T10:40:30;96411.91;;;11.62;95.07
47274;BME280;33007;49.082;19.306;2022-10-14T10:51:03;96378.66;;;11.82;95.87
47274;BME280;33007;49.082;19.306;2022-10-14T11:07:37;96379.31;;;12.30;94.85
47274;BME280;33007;49.082;19.306;2022-10-14T11:10:31;96360.91;;;12.25;93.29
47274;BME280;33007;49.082;19.306;2022-10-14T11:21:08;96347.22;;;12.49;92.59
47274;BME280;33007;49.082;19.306;2022-10-14T11:23:47;96327.75;;;12.56;92.42
47274;BME280;33007;49.082;19.306;2022-10-14T11:31:49;96340.16;;;12.72;92.17
47274;BME280;33007;49.082;19.306;2022-10-14T11:34:44;96349.63;;;12.76;92.46
47274;BME280;33007;49.082;19.306;2022-10-14T11:39:57;96338.75;;;12.76;91.83
47274;BME280;33007;49.082;19.306;2022-10-14T11:48:24;96343.94;;;12.74;91.60
47274;BME280;33007;49.082;19.306;2022-10-14T11:51:00;96330.00;;;12.72;93.16
47274;BME280;33007;49.082;19.306;2022-10-14T11:53:48;96320.44;;;12.62;93.46
47274;BME280;33007;49.082;19.306;2022-10-14T11:58:52;96305.63;;;12.33;93.98
47274;BME280;33007;49.082;19.306;2022-10-14T12:01:23;96308.63;;;12.36;93.63
47274;BME280;33007;49.082;19.306;2022-10-14T12:04:05;96336.41;;;12.54;95.96
47274;BME280;33007;49.082;19.306;2022-10-14T12:06:38;96333.31;;;12.62;94.14
47274;BME280;33007;49.082;19.306;2022-10-14T12:09:22;96322.13;;;12.59;93.79
47274;BME280;33007;49.082;19.306;2022-10-14T12:11:56;96327.66;;;12.65;94.30
47274;BME280;33007;49.082;19.306;2022-10-14T12:16:52;96317.25;;;12.64;94.87
47274;BME280;33007;49.082;19.306;2022-10-14T12:19:27;96300.53;;;12.56;99.02
47274;BME280;33007;49.082;19.306;2022-10-14T12:24:35;96325.44;;;12.64;96.05
47274;BME280;33007;49.082;19.306;2022-10-14T12:27:04;96278.88;;;12.32;95.61
47274;BME280;33007;49.082;19.306;2022-10-14T12:29:34;96323.84;;;12.57;96.78
47274;BME280;33007;49.082;19.306;2022-10-14T12:34:40;96302.72;;;12.37;97.14
47274;BME280;33007;49.082;19.306;2022-10-14T12:45:33;96319.91;;;12.43;98.97
47274;BME280;33007;49.082;19.306;2022-10-14T12:48:13;96305.72;;;12.39;98.20
47274;BME280;33007;49.082;19.306;2022-10-14T12:50:46;96319.50;;;12.50;98.52
47274;BME280;33007;49.082;19.306;2022-10-14T12:53:32;96314.72;;;12.45;98.91
47274;BME280;33007;49.082;19.306;2022-10-14T12:56:00;96306.38;;;12.34;100.00
47274;BME280;33007;49.082;19.306;2022-10-14T13:01:17;96302.44;;;12.20;99.61
47274;BME280;33007;49.082;19.306;2022-10-14T13:04:13;96319.81;;;12.38;99.67
47274;BME280;33007;49.082;19.306;2022-10-14T13:06:42;96314.44;;;12.28;100.00
47274;BME280;33007;49.082;19.306;2022-10-14T13:11:41;96309.31;;;12.30;100.00
47274;BME280;33007;49.082;19.306;2022-10-14T13:14:27;96299.91;;;12.17;100.00
47274;BME280;33007;49.082;19.306;2022-10-14T13:16:59;96299.97;;;12.07;100.00
47274;BME280;33007;49.082;19.306;2022-10-14T13:21:59;96317.81;;;12.23;100.00
47274;BME280;33007;49.082;19.306;2022-10-14T13:24:30;96304.19;;;12.09;100.00
47274;BME280;33007;49.082;19.306;2022-10-14T13:27:14;96294.34;;;11.96;100.00
47274;BME280;33007;49.082;19.306;2022-10-14T13:33:10;96309.28;;;12.01;100.00
47274;BME280;33007;49.082;19.306;2022-10-14T13:36:06;96314.25;;;12.02;100.00
47274;BME280;33007;49.082;19.306;2022-10-14T13:38:35;96298.00;;;11.93;100.00
47274;BME280;33007;49.082;19.306;2022-10-14T13:41:02;96295.47;;;11.90;100.00
47274;BME280;33007;49.082;19.306;2022-10-14T13:43:35;96299.84;;;11.87;100.00
47274;BME280;33007;49.082;19.306;2022-10-14T13:46:17;96319.69;;;12.02;100.00
47274;BME280;33007;49.082;19.306;2022-10-14T13:48:51;96306.19;;;11.93;100.00
47274;BME280;33007;49.082;19.306;2022-10-14T13:51:25;96298.66;;;11.88;100.00
47274;BME280;33007;49.082;19.306;2022-10-14T13:56:27;96297.34;;;11.84;100.00
47274;BME280;33007;49.082;19.306;2022-10-14T13:58:54;96283.88;;;11.80;100.00
47274;BME280;33007;49.082;19.306;2022-10-14T14:01:23;96277.41;;;11.77;100.00
47274;BME280;33007;49.082;19.306;2022-10-14T14:03:55;96283.25;;;11.85;100.00
47274;BME280;33007;49.082;19.306;2022-10-14T14:06:23;96282.25;;;11.83;100.00
47274;BME280;33007;49.082;19.306;2022-10-14T14:08:53;96272.84;;;11.84;100.00
47274;BME280;33007;49.082;19.306;2022-10-14T14:11:23;96299.59;;;12.00;100.00
47274;BME280;33007;49.082;19.306;2022-10-14T14:13:59;96302.13;;;12.03;100.00
47274;BME280;33007;49.082;19.306;2022-10-14T14:16:34;96275.38;;;11.87;100.00
47274;BME280;33007;49.082;19.306;2022-10-14T14:19:04;96287.97;;;11.99;100.00
47274;BME280;33007;49.082;19.306;2022-10-14T14:21:30;96287.13;;;11.93;100.00
47274;BME280;33007;49.082;19.306;2022-10-14T14:24:09;96265.53;;;11.90;100.00
47274;BME280;33007;49.082;19.306;2022-10-14T14:26:39;96247.50;;;11.77;100.00
47274;BME280;33007;49.082;19.306;2022-10-14T14:29:10;96278.59;;;12.00;100.00
47274;BME280;33007;49.082;19.306;2022-10-14T14:31:38;96270.59;;;11.97;100.00
47274;BME280;33007;49.082;19.306;2022-10-14T14:34:04;96238.94;;;11.70;100.00
47274;BME280;33007;49.082;19.306;2022-10-14T14:36:30;96278.84;;;11.88;100.00
47274;BME280;33007;49.082;19.306;2022-10-14T14:39:00;96254.50;;;11.69;100.00
47274;BME280;33007;49.082;19.306;2022-10-14T14:41:31;96262.28;;;11.76;100.00
47274;BME280;33007;49.082;19.306;2022-10-14T14:43:58;96283.25;;;11.85;100.00
47274;BME280;33007;49.082;19.306;2022-10-14T14:48:58;96267.09;;;11.67;100.00
47274;BME280;33007;49.082;19.306;2022-10-14T14:51:31;96263.59;;;11.66;100.00
47274;BME280;33007;49.082;19.306;2022-10-14T14:53:59;96249.59;;;11.59;100.00
47274;BME280;33007;49.082;19.306;2022-10-14T14:56:29;96285.09;;;11.79;100.00
47274;BME280;33007;49.082;19.306;2022-10-14T14:59:05;96236.72;;;11.44;100.00
47274;BME280;33007;49.082;19.306;2022-10-14T15:01:32;96235.53;;;11.45;100.00
47274;BME280;33007;49.082;19.306;2022-10-14T15:04:04;96234.97;;;11.56;100.00